Etusivu
METAR-TAF:

METAR-TAF

Lentoasemat :

Corinth, Mississippi, Yhdysvallat

Leveyspiiri: 34-54-54N, Pituuspiiri: 088-36-13W, korkeus merenpinnasta: 130 m

Tämänhetkinen sää

Tämä raportti tehtiin 6 minuuttia sitten, kello 23.55 UTC
Tuuli 4 kn etelästä
Lämpötila 17°C
Kosteus 94%
Ilmanpaine 1007 hPa
Näkyvyys: 4.0 km
Hajonneita pilviä 700 ft:n korkeudessa
Pilvistä 1200 ft:n korkeudessa
heikkoa tihkusadetta

METAR: KCRX 252355Z AUTO 19004KT 2 1/2SM -DZ BKN007 OVC012 17/16 A2973 RMK AO2

Aika: 19:01 (00:01 UTC)


TAF: puuttuu

Säähavainnot ja -ennusteet yli 4000 lentoasemalta (METAR- ja TAF-raportit).

Käytössä olevat sääasemat on merkitty karttaan keltaisilla ja punaisilla pisteillä.

Aseta hiiri pisteen päälle nähdäksesi sääaseman nimen.

Klikkaa sitten nähdäksesi säähavainnot ja -ennusteet.

Kartan vaihtaminen: klikkaa mustalla rastilla varustettuja vihreitä pisteitä, niin voit zoomata sisään; viivalla varustettua vihreää pistettä, niin voit zoomata ulos tai vihreitä nuolia, niin pääset viereisille kartoille.


METAR-TAF: